createdAt,value
2023-06-17T00:01:12.059Z,99949.38
2023-06-17T00:03:45.153Z,99947.52
2023-06-17T00:06:11.646Z,99941.59
2023-06-17T00:08:38.283Z,99938.27
2023-06-17T00:11:05.847Z,99938.33
2023-06-17T00:13:33.210Z,99939.53
2023-06-17T00:15:59.618Z,99937.58
2023-06-17T00:18:26.823Z,99931.78
2023-06-17T00:20:54.177Z,99933.11
2023-06-17T00:23:21.221Z,99932.48
2023-06-17T00:25:48.888Z,99929.77
2023-06-17T00:28:15.900Z,99929.92
2023-06-17T00:30:46.603Z,99926.38
2023-06-17T00:33:13.934Z,99926.17
2023-06-17T00:36:54.002Z,99923.95
2023-06-17T00:40:50.748Z,99918.30
2023-06-17T00:43:17.135Z,99912.05
2023-06-17T00:45:44.795Z,99910.77
2023-06-17T00:48:11.724Z,99905.33
2023-06-17T00:50:38.449Z,99905.05
2023-06-17T00:53:05.901Z,99905.30
2023-06-17T00:55:33.196Z,99910.17
2023-06-17T00:58:01.078Z,99910.20
2023-06-17T01:00:27.471Z,99911.84
2023-06-17T01:02:54.072Z,99908.88
2023-06-17T01:05:20.731Z,99906.65
2023-06-17T01:08:14.740Z,99905.84
2023-06-17T01:10:49.287Z,99906.75
2023-06-17T01:13:16.588Z,99905.33
2023-06-17T01:15:44.422Z,99902.55
2023-06-17T01:18:12.230Z,99903.98
2023-06-17T01:20:39.849Z,99904.11
2023-06-17T01:23:06.866Z,99903.48
2023-06-17T01:25:35.141Z,99901.83
2023-06-17T01:28:16.359Z,99906.09
2023-06-17T01:30:54.947Z,99908.84
2023-06-17T01:33:23.324Z,99908.43
2023-06-17T01:35:59.112Z,99911.19
2023-06-17T01:38:30.815Z,99905.81
2023-06-17T01:41:10.415Z,99902.66
2023-06-17T01:43:40.467Z,99901.54
2023-06-17T01:46:07.885Z,99903.39
2023-06-17T01:48:34.240Z,99900.50
2023-06-17T01:51:00.731Z,99899.81
2023-06-17T01:53:29.196Z,99893.79
2023-06-17T01:55:56.017Z,99884.23
2023-06-17T01:58:22.707Z,99879.75
2023-06-17T02:00:49.194Z,99876.02
2023-06-17T02:03:16.640Z,99873.48
2023-06-17T02:05:43.757Z,99868.92
2023-06-17T02:08:11.401Z,99868.87
2023-06-17T02:10:38.677Z,99868.23
2023-06-17T02:13:05.107Z,99866.46
2023-06-17T02:15:31.644Z,99864.59
2023-06-17T02:17:58.702Z,99862.70
2023-06-17T02:20:26.145Z,99861.95
2023-06-17T02:22:53.236Z,99861.27
2023-06-17T02:25:20.404Z,99861.84
2023-06-17T02:27:46.928Z,99862.69
2023-06-17T02:30:13.591Z,99862.41
2023-06-17T02:32:40.063Z,99857.65
2023-06-17T02:35:06.757Z,99857.61
2023-06-17T02:37:33.749Z,99858.08
2023-06-17T02:40:00.210Z,99858.73
2023-06-17T02:42:26.654Z,99853.46
2023-06-17T02:44:53.046Z,99854.56
2023-06-17T02:47:19.586Z,99855.38
2023-06-17T02:49:46.092Z,99851.38
2023-06-17T02:52:12.474Z,99845.23
2023-06-17T02:54:38.858Z,99850.33
2023-06-17T02:57:05.677Z,99845.05
2023-06-17T02:59:34.165Z,99845.95
2023-06-17T03:04:38.193Z,99845.29
2023-06-17T03:07:06.954Z,99849.27
2023-06-17T03:09:34.802Z,99848.20
2023-06-17T03:12:04.205Z,99845.28
2023-06-17T03:14:31.985Z,99845.48
2023-06-17T03:17:00.287Z,99845.23
2023-06-17T03:19:28.420Z,99846.96
2023-06-17T03:21:56.896Z,99847.89
2023-06-17T03:24:25.446Z,99845.55
2023-06-17T03:26:54.608Z,99847.27
2023-06-17T03:29:22.577Z,99847.79
2023-06-17T03:31:51.251Z,99849.58
2023-06-17T03:34:19.139Z,99848.52
2023-06-17T03:36:48.481Z,99849.23
2023-06-17T03:39:16.558Z,99855.30
2023-06-17T03:41:44.572Z,99856.09
2023-06-17T03:44:12.412Z,99851.71
2023-06-17T03:46:40.210Z,99854.52
2023-06-17T03:49:09.014Z,99854.60
2023-06-17T03:51:38.052Z,99856.70
2023-06-17T03:54:05.998Z,99857.00
2023-06-17T03:56:33.835Z,99858.80
2023-06-17T03:59:01.791Z,99855.09
2023-06-17T04:01:31.748Z,99850.46
2023-06-17T04:03:59.754Z,99851.02
2023-06-17T04:06:27.752Z,99853.35
2023-06-17T04:08:55.565Z,99853.48
2023-06-17T04:11:23.442Z,99850.45
2023-06-17T04:13:51.244Z,99852.20
2023-06-17T04:16:19.101Z,99855.04
2023-06-17T04:18:48.124Z,99854.60
2023-06-17T04:21:16.052Z,99853.56
2023-06-17T04:23:43.837Z,99853.69
2023-06-17T04:26:14.196Z,99853.66
2023-06-17T04:28:42.087Z,99853.02
2023-06-17T04:31:12.194Z,99854.64
2023-06-17T04:33:41.574Z,99857.42
2023-06-17T04:36:10.081Z,99852.27
2023-06-17T04:38:39.641Z,99850.40
2023-06-17T04:41:07.670Z,99848.55
2023-06-17T04:43:38.231Z,99851.19
2023-06-17T04:46:06.451Z,99851.43
2023-06-17T04:48:34.188Z,99856.33
2023-06-17T04:51:01.974Z,99854.09
2023-06-17T04:53:29.728Z,99857.98
2023-06-17T04:55:57.809Z,99857.36
2023-06-17T04:58:25.674Z,99855.58
2023-06-17T05:00:53.520Z,99859.26
2023-06-17T05:03:21.321Z,99860.13
2023-06-17T05:05:49.396Z,99859.04
2023-06-17T05:08:17.350Z,99856.28
2023-06-17T05:10:45.197Z,99855.89
2023-06-17T05:13:13.028Z,99857.11
2023-06-17T05:15:40.916Z,99861.61
2023-06-17T05:18:08.715Z,99865.89
2023-06-17T05:20:36.465Z,99863.36
2023-06-17T05:23:04.311Z,99864.48
2023-06-17T05:25:32.073Z,99866.79
2023-06-17T05:28:00.968Z,99866.56
2023-06-17T05:30:29.034Z,99865.71
2023-06-17T05:32:56.910Z,99866.48
2023-06-17T05:35:24.668Z,99866.92
2023-06-17T05:37:52.508Z,99868.08
2023-06-17T05:40:20.402Z,99868.56
2023-06-17T05:42:48.485Z,99870.48
2023-06-17T05:45:16.337Z,99870.63
2023-06-17T05:47:44.168Z,99873.05
2023-06-17T05:50:11.990Z,99873.69
2023-06-17T05:52:39.930Z,99878.02
2023-06-17T05:55:08.373Z,99877.51
2023-06-17T05:57:36.705Z,99875.61
2023-06-17T06:00:07.290Z,99879.02
2023-06-17T06:02:35.171Z,99878.00
2023-06-17T06:05:04.498Z,99883.13
2023-06-17T06:07:34.879Z,99883.38
2023-06-17T06:10:09.012Z,99883.92
2023-06-17T06:12:36.851Z,99886.43
2023-06-17T06:15:07.157Z,99892.02
2023-06-17T06:17:35.270Z,99893.95
2023-06-17T06:20:04.481Z,99896.05
2023-06-17T06:22:32.389Z,99896.23
2023-06-17T06:25:00.345Z,99898.73
2023-06-17T06:27:54.129Z,99904.23
2023-06-17T06:30:22.238Z,99900.92
2023-06-17T06:32:50.503Z,99904.32
2023-06-17T06:35:18.420Z,99906.59
2023-06-17T06:37:46.281Z,99904.59
2023-06-17T06:40:14.448Z,99903.87
2023-06-17T06:42:42.444Z,99902.08
2023-06-17T06:45:11.392Z,99901.69
2023-06-17T06:47:40.052Z,99895.64
2023-06-17T06:50:11.096Z,99893.45
2023-06-17T06:52:38.959Z,99898.73
2023-06-17T06:55:12.597Z,99903.39
2023-06-17T06:57:40.744Z,99907.53
2023-06-17T07:00:13.608Z,99903.30
2023-06-17T07:02:41.581Z,99901.73
2023-06-17T07:05:10.980Z,99902.38
2023-06-17T07:07:39.000Z,99900.09
2023-06-17T07:10:07.387Z,99905.32
2023-06-17T07:12:35.297Z,99901.13
2023-06-17T07:15:03.310Z,99906.09
2023-06-17T07:17:32.912Z,99903.95
2023-06-17T07:20:00.866Z,99902.55
2023-06-17T07:23:44.674Z,99901.48
2023-06-17T07:26:13.589Z,99901.67
2023-06-17T07:28:41.569Z,99906.45
2023-06-17T07:31:09.789Z,99902.38
2023-06-17T07:33:39.733Z,99906.66
2023-06-17T07:36:11.525Z,99907.49
2023-06-17T07:38:43.616Z,99913.52
2023-06-17T07:41:12.218Z,99905.56
2023-06-17T07:43:40.242Z,99905.44
2023-06-17T07:46:10.752Z,99904.69
2023-06-17T07:48:38.743Z,99908.99
2023-06-17T07:51:08.306Z,99904.05
2023-06-17T07:53:41.216Z,99902.56
2023-06-17T07:56:09.620Z,99903.59
2023-06-17T07:58:39.986Z,99904.11
2023-06-17T08:01:10.145Z,99899.29
2023-06-17T08:03:38.069Z,99899.79
2023-06-17T08:06:06.705Z,99901.50
2023-06-17T08:08:35.460Z,99903.27
2023-06-17T08:11:03.455Z,99898.33
2023-06-17T08:13:35.647Z,99899.90
2023-06-17T08:16:13.882Z,99896.39
2023-06-17T08:18:43.040Z,99894.32
2023-06-17T08:22:02.304Z,99896.87
2023-06-17T08:24:30.300Z,99893.98
2023-06-17T08:27:00.570Z,99889.50
2023-06-17T08:29:29.286Z,99885.66
2023-06-17T08:31:57.270Z,99883.58
2023-06-17T08:34:25.258Z,99886.15
2023-06-17T08:36:56.395Z,99887.15
2023-06-17T08:39:24.229Z,99888.13
2023-06-17T08:41:52.231Z,99885.31
2023-06-17T08:44:23.560Z,99883.02
2023-06-17T08:46:54.311Z,99884.95
2023-06-17T08:49:29.121Z,99884.17
2023-06-17T08:52:02.532Z,99880.70
2023-06-17T08:54:34.342Z,99877.17
2023-06-17T08:57:03.337Z,99876.21
2023-06-17T08:59:34.625Z,99884.42
2023-06-17T09:02:15.828Z,99883.86
2023-06-17T09:04:45.878Z,99881.13
2023-06-17T09:07:14.672Z,99879.41
2023-06-17T09:09:49.488Z,99881.13
2023-06-17T09:12:17.547Z,99879.98
2023-06-17T09:14:48.771Z,99882.77
2023-06-17T09:17:30.199Z,99881.16
2023-06-17T09:20:11.499Z,99880.38
2023-06-17T09:22:44.456Z,99885.23
2023-06-17T09:25:16.925Z,99881.19
2023-06-17T09:28:11.000Z,99885.29
2023-06-17T09:30:43.738Z,99884.02
2023-06-17T09:33:22.935Z,99889.36
2023-06-17T09:36:02.288Z,99884.18
2023-06-17T09:38:34.797Z,99883.77
2023-06-17T09:41:06.474Z,99887.56
2023-06-17T09:43:35.155Z,99886.09
2023-06-17T09:46:06.245Z,99890.05
2023-06-17T09:48:38.544Z,99886.59
2023-06-17T09:51:10.858Z,99890.84
2023-06-17T09:53:42.374Z,99893.55
2023-06-17T09:56:12.328Z,99894.78
2023-06-17T09:58:44.546Z,99893.51
2023-06-17T10:01:14.977Z,99897.85
2023-06-17T10:03:43.141Z,99902.59
2023-06-17T10:06:13.434Z,99894.69
2023-06-17T10:08:44.069Z,99895.63
2023-06-17T10:11:16.745Z,99897.06
2023-06-17T10:13:52.892Z,99890.83
2023-06-17T10:16:25.799Z,99888.68
2023-06-17T10:18:58.068Z,99887.46
2023-06-17T10:21:30.525Z,99891.42
2023-06-17T10:24:01.786Z,99891.86
2023-06-17T10:26:32.276Z,99887.15
2023-06-17T10:29:03.533Z,99885.67
2023-06-17T10:31:33.230Z,99882.41
2023-06-17T10:34:02.978Z,99880.73
2023-06-17T10:36:34.980Z,99884.52
2023-06-17T10:39:08.567Z,99887.84
2023-06-17T10:41:39.483Z,99883.34
2023-06-17T10:44:29.388Z,99885.21
2023-06-17T10:46:57.952Z,99880.61
2023-06-17T10:49:26.813Z,99875.65
2023-06-17T10:52:00.877Z,99878.61
2023-06-17T10:54:30.839Z,99881.73
2023-06-17T10:57:02.946Z,99880.14
2023-06-17T10:59:34.349Z,99881.52
2023-06-17T11:02:04.742Z,99884.33
2023-06-17T11:04:35.065Z,99882.38
2023-06-17T11:07:04.194Z,99881.22
2023-06-17T11:09:35.101Z,99878.58
2023-06-17T11:12:05.045Z,99883.23
2023-06-17T11:14:34.542Z,99885.02
2023-06-17T11:17:03.021Z,99885.13
2023-06-17T11:19:30.892Z,99887.47
2023-06-17T11:22:04.547Z,99883.84
2023-06-17T11:24:40.974Z,99879.63
2023-06-17T11:27:12.072Z,99880.65
2023-06-17T11:29:43.234Z,99881.94
2023-06-17T11:32:12.242Z,99879.73
2023-06-17T11:34:54.399Z,99882.27
2023-06-17T11:37:22.892Z,99884.48
2023-06-17T11:39:50.669Z,99884.81
2023-06-17T11:42:20.545Z,99877.86
2023-06-17T11:44:49.294Z,99877.02
2023-06-17T11:47:17.464Z,99877.05
2023-06-17T11:49:45.384Z,99871.13
2023-06-17T11:52:15.310Z,99872.24
2023-06-17T11:54:47.166Z,99871.33
2023-06-17T11:57:23.163Z,99870.39
2023-06-17T11:59:52.362Z,99869.13
2023-06-17T12:02:21.023Z,99868.93
2023-06-17T12:04:49.277Z,99868.63
2023-06-17T12:07:17.177Z,99861.41
2023-06-17T12:09:53.404Z,99864.48
2023-06-17T12:12:36.058Z,99866.73
2023-06-17T12:17:43.616Z,99869.95
2023-06-17T12:20:16.145Z,99865.33
2023-06-17T12:22:45.968Z,99874.17
2023-06-17T12:25:17.425Z,99873.16
2023-06-17T12:27:45.650Z,99874.92
2023-06-17T12:30:15.251Z,99869.64
2023-06-17T12:32:44.509Z,99872.93
2023-06-17T12:35:15.646Z,99872.06
2023-06-17T12:37:45.225Z,99871.96
2023-06-17T12:40:14.663Z,99871.36
2023-06-17T12:42:43.565Z,99874.88
2023-06-17T12:45:11.743Z,99873.11
2023-06-17T12:47:40.270Z,99873.77
2023-06-17T12:50:09.204Z,99872.30
2023-06-17T12:52:37.435Z,99869.17
2023-06-17T12:55:07.179Z,99866.30
2023-06-17T12:57:35.366Z,99866.59
2023-06-17T13:00:07.603Z,99855.52
2023-06-17T13:02:37.353Z,99856.56
2023-06-17T13:05:08.384Z,99853.29
2023-06-17T13:07:37.619Z,99853.48
2023-06-17T13:10:06.915Z,99851.09
2023-06-17T13:12:35.094Z,99846.62
2023-06-17T13:15:06.233Z,99846.20
2023-06-17T13:17:34.225Z,99844.06
2023-06-17T13:20:04.429Z,99846.74
2023-06-17T13:22:39.233Z,99850.63
2023-06-17T13:25:14.742Z,99850.48
2023-06-17T13:27:43.679Z,99849.39
2023-06-17T13:30:14.295Z,99850.05
2023-06-17T13:32:42.438Z,99845.90
2023-06-17T13:35:11.600Z,99838.98
2023-06-17T13:37:40.122Z,99837.77
2023-06-17T13:40:09.900Z,99835.89
2023-06-17T13:42:38.068Z,99839.23
2023-06-17T13:45:07.756Z,99838.10
2023-06-17T13:47:35.702Z,99837.41
2023-06-17T13:50:07.831Z,99841.77
2023-06-17T13:56:42.974Z,99847.75
2023-06-17T13:59:14.081Z,99845.80
2023-06-17T14:01:42.421Z,99841.41
2023-06-17T14:04:12.126Z,99835.23
2023-06-17T14:06:41.203Z,99828.48
2023-06-17T14:09:09.159Z,99832.46
2023-06-17T14:11:38.879Z,99836.17
2023-06-17T14:14:07.105Z,99837.23
2023-06-17T14:16:35.205Z,99833.17
2023-06-17T14:19:05.362Z,99828.86
2023-06-17T14:21:35.788Z,99825.34
2023-06-17T14:24:12.150Z,99826.58
2023-06-17T14:26:42.001Z,99822.84
2023-06-17T14:29:10.878Z,99826.24
2023-06-17T14:31:39.925Z,99824.70
2023-06-17T14:34:07.758Z,99823.23
2023-06-17T14:36:35.962Z,99822.41
2023-06-17T14:39:04.172Z,99819.72
2023-06-17T14:41:33.754Z,99821.20
2023-06-17T14:44:02.260Z,99821.37
2023-06-17T14:46:30.074Z,99820.98
2023-06-17T14:48:58.009Z,99824.59
2023-06-17T14:51:25.832Z,99827.73
2023-06-17T14:53:54.927Z,99833.64
2023-06-17T14:56:29.094Z,99834.39
2023-06-17T14:58:58.636Z,99837.71
2023-06-17T15:01:27.706Z,99841.44
2023-06-17T15:03:56.765Z,99839.85
2023-06-17T15:06:25.006Z,99837.11
2023-06-17T15:09:26.518Z,99836.58
2023-06-17T15:12:10.949Z,99836.86
2023-06-17T15:14:38.777Z,99835.96
2023-06-17T15:17:07.590Z,99834.09
2023-06-17T15:19:37.685Z,99835.05
2023-06-17T15:22:05.877Z,99836.09
2023-06-17T15:24:34.209Z,99840.83
2023-06-17T15:27:02.214Z,99838.63
2023-06-17T15:29:30.073Z,99834.30
2023-06-17T15:31:58.082Z,99838.05
2023-06-17T15:34:26.049Z,99835.68
2023-06-17T15:36:54.587Z,99834.62
2023-06-17T15:39:26.490Z,99838.05
2023-06-17T15:41:54.880Z,99841.38
2023-06-17T15:44:23.325Z,99837.86
2023-06-17T15:46:53.688Z,99840.39
2023-06-17T15:49:21.662Z,99840.62
2023-06-17T15:51:49.450Z,99842.88
2023-06-17T15:54:19.263Z,99840.44
2023-06-17T15:56:47.873Z,99840.77
2023-06-17T15:59:16.464Z,99841.92
2023-06-17T16:01:44.517Z,99843.11
2023-06-17T16:04:33.748Z,99844.17
2023-06-17T16:07:03.998Z,99849.70
2023-06-17T16:09:33.898Z,99850.98
2023-06-17T16:12:05.404Z,99846.73
2023-06-17T16:14:34.256Z,99850.23
2023-06-17T16:17:04.205Z,99854.13
2023-06-17T16:19:33.064Z,99849.11
2023-06-17T16:22:03.426Z,99851.47
2023-06-17T16:24:36.066Z,99851.42
2023-06-17T16:27:04.131Z,99856.94
2023-06-17T16:29:32.396Z,99856.03
2023-06-17T16:32:00.328Z,99858.93
2023-06-17T16:34:28.266Z,99853.69
2023-06-17T16:36:56.231Z,99849.17
2023-06-17T16:39:24.100Z,99852.66
2023-06-17T16:41:52.039Z,99850.30
2023-06-17T16:44:19.944Z,99853.75
2023-06-17T16:46:49.309Z,99854.49
2023-06-17T16:49:19.003Z,99858.14
2023-06-17T16:51:47.951Z,99860.07
2023-06-17T16:54:16.021Z,99860.67
2023-06-17T16:56:44.040Z,99862.75
2023-06-17T16:59:12.096Z,99863.37
2023-06-17T17:01:40.584Z,99865.95
2023-06-17T17:04:12.895Z,99867.71
2023-06-17T17:06:43.337Z,99870.59
2023-06-17T17:09:12.314Z,99868.69
2023-06-17T17:11:41.660Z,99872.84
2023-06-17T17:14:09.604Z,99879.70
2023-06-17T17:16:37.719Z,99884.48
2023-06-17T17:19:06.216Z,99885.20
2023-06-17T17:21:35.274Z,99887.60
2023-06-17T17:24:06.080Z,99887.85
2023-06-17T17:27:46.976Z,99885.44
2023-06-17T17:31:24.537Z,99884.37
2023-06-17T17:35:04.998Z,99892.33
2023-06-17T17:37:36.867Z,99898.11
2023-06-17T17:40:07.181Z,99900.37
2023-06-17T17:42:37.762Z,99899.54
2023-06-17T17:45:07.579Z,99902.84
2023-06-17T17:47:36.046Z,99904.25
2023-06-17T17:50:06.691Z,99899.59
2023-06-17T17:52:34.890Z,99902.44
2023-06-17T17:55:03.251Z,99901.94
2023-06-17T17:59:03.644Z,99901.77
2023-06-17T18:02:44.077Z,99900.37
2023-06-17T18:06:26.066Z,99901.35
2023-06-17T18:10:24.307Z,99904.14
2023-06-17T18:14:02.793Z,99903.29
2023-06-17T18:17:21.240Z,99906.42
2023-06-17T18:20:58.764Z,99906.15
2023-06-17T18:24:36.706Z,99907.54
2023-06-17T18:27:05.187Z,99908.11
2023-06-17T18:29:33.390Z,99912.30
2023-06-17T18:32:02.444Z,99910.30
2023-06-17T18:34:30.475Z,99910.79
2023-06-17T18:38:28.966Z,99914.12
2023-06-17T18:42:06.138Z,99917.98
2023-06-17T18:46:06.045Z,99923.63
2023-06-17T18:48:32.880Z,99924.16
2023-06-17T18:50:59.438Z,99924.27
2023-06-17T18:53:25.967Z,99929.54
2023-06-17T18:55:52.638Z,99934.34
2023-06-17T18:58:19.285Z,99937.58
2023-06-17T19:00:46.211Z,99937.30
2023-06-17T19:03:12.928Z,99936.44
2023-06-17T19:05:40.352Z,99937.27
2023-06-17T19:08:07.174Z,99936.36
2023-06-17T19:10:33.694Z,99938.82
2023-06-17T19:13:02.840Z,99938.23
2023-06-17T19:15:33.571Z,99936.56
2023-06-17T19:18:01.001Z,99936.27
2023-06-17T19:20:27.869Z,99934.91
2023-06-17T19:22:54.463Z,99933.23
2023-06-17T19:25:21.116Z,99930.23
2023-06-17T19:27:48.099Z,99931.77
2023-06-17T19:30:16.721Z,99934.31
2023-06-17T19:32:43.378Z,99934.98
2023-06-17T19:35:10.154Z,99937.30
2023-06-17T19:37:54.741Z,99941.02
2023-06-17T19:40:24.432Z,99939.11
2023-06-17T19:42:52.819Z,99938.63
2023-06-17T19:45:27.942Z,99942.20
2023-06-17T19:48:02.341Z,99944.96
2023-06-17T19:53:10.283Z,99951.19
2023-06-17T19:56:43.818Z,99953.85
2023-06-17T19:59:51.786Z,99956.23
2023-06-17T20:03:09.956Z,99959.60
2023-06-17T20:06:51.417Z,99954.02
2023-06-17T20:10:49.256Z,99956.92
2023-06-17T20:13:16.599Z,99956.14
2023-06-17T20:15:43.581Z,99952.95
2023-06-17T20:18:10.669Z,99959.58
2023-06-17T20:20:37.505Z,99959.63
2023-06-17T20:23:04.287Z,99959.23
2023-06-17T20:25:31.611Z,99957.72
2023-06-17T20:27:58.252Z,99955.09
2023-06-17T20:30:26.496Z,99955.98
2023-06-17T20:32:53.342Z,99955.52
2023-06-17T20:35:19.989Z,99952.50
2023-06-17T20:37:46.876Z,99952.53
2023-06-17T20:40:13.823Z,99951.50
2023-06-17T20:42:40.463Z,99951.93
2023-06-17T20:45:11.662Z,99951.99
2023-06-17T20:47:38.431Z,99947.33
2023-06-17T20:50:06.697Z,99949.86
2023-06-17T20:52:33.334Z,99949.56
2023-06-17T20:55:03.912Z,99947.95
2023-06-17T20:57:33.103Z,99950.84
2023-06-17T21:00:00.700Z,99950.32
2023-06-17T21:02:27.358Z,99949.20
2023-06-17T21:04:56.398Z,99947.69
2023-06-17T21:07:23.130Z,99947.04
2023-06-17T21:09:51.291Z,99945.64
2023-06-17T21:12:21.644Z,99945.39
2023-06-17T21:14:48.521Z,99947.23
2023-06-17T21:17:15.883Z,99944.89
2023-06-17T21:19:42.386Z,99946.51
2023-06-17T21:22:09.031Z,99946.29
2023-06-17T21:24:35.682Z,99943.71
2023-06-17T21:27:02.576Z,99939.33
2023-06-17T21:29:29.028Z,99934.52
2023-06-17T21:31:55.458Z,99937.66
2023-06-17T21:34:21.992Z,99940.67
2023-06-17T21:36:48.469Z,99940.38
2023-06-17T21:39:15.467Z,99940.42
2023-06-17T21:41:42.060Z,99942.54
2023-06-17T21:44:09.753Z,99944.86
2023-06-17T21:46:36.388Z,99949.49
2023-06-17T21:49:02.877Z,99953.56
2023-06-17T21:51:29.301Z,99955.48
2023-06-17T21:53:55.910Z,99952.29
2023-06-17T21:56:22.540Z,99950.92
2023-06-17T21:58:49.079Z,99950.45
2023-06-17T22:01:15.987Z,99954.39
2023-06-17T22:03:42.733Z,99957.14
2023-06-17T22:06:09.326Z,99959.03
2023-06-17T22:08:42.852Z,99959.17
2023-06-17T22:11:11.482Z,99962.02
2023-06-17T22:13:39.674Z,99963.79
2023-06-17T22:16:06.454Z,99964.60
2023-06-17T22:18:57.895Z,99962.63
2023-06-17T22:22:37.695Z,99962.42
2023-06-17T22:25:07.938Z,99963.55
2023-06-17T22:27:35.823Z,99969.40
2023-06-17T22:30:04.420Z,99970.41
2023-06-17T22:32:33.688Z,99973.20
2023-06-17T22:35:04.926Z,99970.18
2023-06-17T22:37:33.572Z,99967.27
2023-06-17T22:40:01.444Z,99957.38
2023-06-17T22:42:29.261Z,99957.00
2023-06-17T22:44:57.213Z,99960.02
2023-06-17T22:47:25.228Z,99958.41
2023-06-17T22:49:54.550Z,99957.02
2023-06-17T22:52:22.432Z,99957.02
2023-06-17T22:54:50.544Z,99953.06
2023-06-17T22:57:18.563Z,99952.30
2023-06-17T22:59:46.902Z,99953.20
2023-06-17T23:02:14.819Z,99955.86
2023-06-17T23:04:43.309Z,99961.45
2023-06-17T23:07:11.881Z,99962.28
2023-06-17T23:11:48.891Z,99961.14
2023-06-17T23:14:16.721Z,99963.16
2023-06-17T23:16:45.754Z,99962.58
2023-06-17T23:19:13.619Z,99966.98
2023-06-17T23:21:41.771Z,99965.61
2023-06-17T23:25:41.543Z,99962.63
2023-06-17T23:29:39.449Z,99957.54
2023-06-17T23:32:58.530Z,99955.25
2023-06-17T23:35:27.197Z,99954.58
2023-06-17T23:37:55.398Z,99955.53
2023-06-17T23:40:23.557Z,99954.81
2023-06-17T23:48:30.915Z,99954.95
2023-06-17T23:52:27.915Z,99955.52
2023-06-17T23:54:54.471Z,99952.05
2023-06-17T23:57:21.333Z,99949.73
2023-06-17T23:59:47.949Z,99951.23
